Time;durP1;ratioP1;P1;durP2;ratioP2;P2;SDS_P1;SDS_P2;PMS_P1;PMS_P2;Temp;Humidity;BMP_temperature;BMP_pressure;BME280_temperature;BME280_humidity;BME280_pressure;Samples;Min_cycle;Max_cycle;Signal;HPM_P1;HPM_P2
2021/12/15 00:00:15;;;;;;;;;5.50;4.00;;;;;7.66;75.56;101387.38;146602;579;46014;-74
2021/12/15 00:03:09;;;;;;;;;4.00;3.25;;;;;7.65;76.19;101386.47;146601;582;46011;-73
2021/12/15 00:06:01;;;;;;;;;3.00;2.00;;;;;7.64;76.76;101395.00;146601;593;46016;-74
2021/12/15 00:08:57;;;;;;;;;3.00;3.00;;;;;7.62;76.38;101406.91;146598;580;46020;-73
2021/12/15 00:11:50;;;;;;;;;4.00;3.75;;;;;7.59;76.12;101410.13;146601;581;46916;-73
2021/12/15 00:14:42;;;;;;;;;6.00;5.75;;;;;7.62;76.31;101417.22;146597;600;47012;-73
2021/12/15 00:17:35;;;;;;;;;3.50;3.00;;;;;7.62;76.31;101402.63;146596;633;47012;-74
2021/12/15 00:20:31;;;;;;;;;6.75;5.00;;;;;7.63;76.73;101399.28;146590;583;46020;-71
2021/12/15 00:23:24;;;;;;;;;3.25;2.75;;;;;7.62;77.17;101394.88;146595;705;46926;-72
2021/12/15 00:26:17;;;;;;;;;3.00;3.00;;;;;7.57;78.43;101392.75;146596;651;46020;-72
2021/12/15 00:29:10;;;;;;;;;5.75;4.00;;;;;7.55;77.57;101389.16;146600;636;46916;-73
2021/12/15 00:32:04;;;;;;;;;4.25;3.25;;;;;7.51;78.27;101390.63;146601;580;46010;-73
2021/12/15 00:34:56;;;;;;;;;6.75;5.00;;;;;7.48;79.72;101389.50;146596;597;46035;-73
2021/12/15 00:37:49;;;;;;;;;4.50;4.50;;;;;7.42;79.12;101389.94;146597;611;46012;-73
2021/12/15 00:40:41;;;;;;;;;4.50;3.00;;;;;7.39;79.59;101400.03;146600;583;46016;-73
2021/12/15 00:43:33;;;;;;;;;3.25;2.75;;;;;7.36;79.44;101407.56;146595;621;46020;-70
2021/12/15 00:46:25;;;;;;;;;5.00;4.00;;;;;7.31;80.23;101407.19;146594;616;46016;-71
2021/12/15 00:49:18;;;;;;;;;4.25;3.00;;;;;7.28;80.46;101409.53;146590;563;46020;-77
2021/12/15 00:52:11;;;;;;;;;4.00;3.75;;;;;7.25;80.18;101422.22;146596;580;46012;-70
2021/12/15 00:55:04;;;;;;;;;5.00;3.00;;;;;7.22;80.37;101398.75;146599;663;46021;-73
2021/12/15 00:57:57;;;;;;;;;8.00;6.75;;;;;7.23;80.01;101407.38;146598;585;47012;-74
2021/12/15 01:01:01;;;;;;;;;4.00;4.00;;;;;7.25;80.56;101413.56;146598;617;46020;-75
2021/12/15 01:03:53;;;;;;;;;8.00;3.75;;;;;7.27;80.16;101422.34;146597;586;46012;-74
2021/12/15 01:06:49;;;;;;;;;3.50;3.50;;;;;7.28;79.48;101424.13;146598;563;46020;-74
2021/12/15 01:09:48;;;;;;;;;7.00;5.50;;;;;7.30;79.60;101418.31;146598;606;46017;-75
2021/12/15 01:22:12;;;;;;;;;4.75;3.75;;;;;7.39;79.76;101426.72;146601;588;46012;-74
2021/12/15 01:25:20;;;;;;;;;4.25;4.00;;;;;7.38;80.19;101443.00;146599;575;46010;-75
2021/12/15 01:28:13;;;;;;;;;4.00;4.00;;;;;7.34;81.38;101437.47;146600;569;46010;-75
2021/12/15 01:31:08;;;;;;;;;4.50;4.50;;;;;7.33;81.33;101433.13;146600;675;46010;-74
2021/12/15 01:34:01;;;;;;;;;4.75;4.75;;;;;7.31;81.40;101438.16;146599;582;46016;-74
2021/12/15 01:36:53;;;;;;;;;5.25;3.00;;;;;7.31;80.90;101439.84;146599;571;46020;-74
2021/12/15 01:39:45;;;;;;;;;4.00;4.00;;;;;7.31;81.09;101445.00;146598;621;47012;-75
2021/12/15 01:42:38;;;;;;;;;4.75;4.75;;;;;7.28;81.85;101437.91;146597;583;46020;-74
2021/12/15 01:48:43;;;;;;;;;6.00;5.00;;;;;7.26;80.82;101438.56;146590;588;46020;-74
2021/12/15 01:51:35;;;;;;;;;6.00;5.00;;;;;7.20;80.54;101439.03;146595;596;46016;-74
2021/12/15 01:54:29;;;;;;;;;6.00;5.25;;;;;7.19;80.31;101434.63;146598;590;46010;-73
2021/12/15 01:57:24;;;;;;;;;6.25;6.00;;;;;7.19;80.41;101450.13;146598;581;46016;-74
2021/12/15 02:00:31;;;;;;;;;5.75;5.25;;;;;7.19;79.31;101452.69;146599;610;46010;-73
2021/12/15 02:03:24;;;;;;;;;6.25;5.25;;;;;7.18;80.27;101449.22;146593;601;46916;-71
2021/12/15 02:06:16;;;;;;;;;5.50;4.50;;;;;7.17;80.02;101444.84;146596;578;46020;-71
2021/12/15 02:09:08;;;;;;;;;6.25;5.75;;;;;7.17;79.96;101450.00;146598;613;46016;-71
2021/12/15 02:12:01;;;;;;;;;5.50;5.50;;;;;7.19;78.88;101447.53;146598;564;46020;-71
2021/12/15 02:14:55;;;;;;;;;7.50;6.50;;;;;7.21;79.10;101445.09;146599;630;46012;-73
2021/12/15 02:17:48;;;;;;;;;7.00;6.00;;;;;7.24;78.86;101450.47;146589;673;47020;-73
2021/12/15 02:20:44;;;;;;;;;8.00;7.00;;;;;7.26;78.80;101454.97;146597;590;46012;-72
2021/12/15 02:23:43;;;;;;;;;6.75;5.25;;;;;7.26;78.56;101452.41;146599;579;46010;-73
2021/12/15 02:26:44;;;;;;;;;11.00;11.00;;;;;7.27;78.13;101451.59;146595;622;46024;-73
2021/12/15 02:29:41;;;;;;;;;9.00;6.00;;;;;7.30;77.96;101456.09;146596;588;46021;-77
2021/12/15 02:32:49;;;;;;;;;5.75;5.50;;;;;7.33;77.75;101452.06;146596;598;46016;-71
2021/12/15 02:38:51;;;;;;;;;5.50;5.25;;;;;7.40;77.54;101453.44;146593;602;46017;-74
2021/12/15 02:41:44;;;;;;;;;7.50;6.25;;;;;7.42;77.67;101451.88;146600;597;46010;-74
2021/12/15 02:44:41;;;;;;;;;6.00;6.00;;;;;7.45;77.59;101452.09;146597;608;46029;-75
2021/12/15 02:47:35;;;;;;;;;7.00;5.00;;;;;7.46;77.48;101455.56;146592;606;46010;-74
2021/12/15 02:50:31;;;;;;;;;10.00;7.50;;;;;7.47;77.82;101457.37;146597;619;46016;-75
2021/12/15 02:53:23;;;;;;;;;7.75;5.00;;;;;7.48;77.97;101451.44;146599;569;46012;-75
2021/12/15 02:56:16;;;;;;;;;8.00;7.25;;;;;7.49;78.94;101463.56;146599;630;46012;-75
2021/12/15 02:59:10;;;;;;;;;13.25;11.00;;;;;7.48;78.57;101469.50;146594;610;46021;-75
2021/12/15 03:02:13;;;;;;;;;12.00;10.50;;;;;7.45;79.38;101464.13;146597;611;47012;-74
2021/12/15 03:05:31;;;;;;;;;12.75;9.25;;;;;7.40;80.41;101456.91;146596;593;46020;-74
2021/12/15 03:08:46;;;;;;;;;10.50;7.00;;;;;7.32;79.84;101465.75;146603;590;47012;-75
2021/12/15 03:18:04;;;;;;;;;10.50;8.50;;;;;7.22;80.53;101457.19;146590;588;46020;-77
2021/12/15 03:21:06;;;;;;;;;11.25;8.75;;;;;7.18;80.61;101462.12;146594;681;46017;-81
2021/12/15 03:24:24;;;;;;;;;11.50;7.50;;;;;7.14;81.05;101454.03;146596;611;46020;-76
2021/12/15 03:27:21;;;;;;;;;8.50;6.75;;;;;7.11;80.97;101459.84;146597;576;46016;-75
2021/12/15 03:33:35;;;;;;;;;9.75;7.50;;;;;7.10;81.85;101472.62;146597;646;46014;-77
2021/12/15 03:36:41;;;;;;;;;6.50;5.75;;;;;7.12;80.78;101490.00;146600;564;46011;-76
2021/12/15 03:39:38;;;;;;;;;9.50;9.50;;;;;7.17;80.23;101488.69;146595;576;46016;-75
2021/12/15 03:42:40;;;;;;;;;8.75;8.25;;;;;7.21;79.74;101499.25;146599;647;46020;-76
2021/12/15 03:45:45;;;;;;;;;9.75;7.50;;;;;7.25;79.75;101494.44;146599;566;46012;-76
2021/12/15 03:48:42;;;;;;;;;9.75;6.75;;;;;7.28;79.68;101493.78;146593;592;45030;-76
2021/12/15 03:51:35;;;;;;;;;10.00;8.00;;;;;7.30;79.40;101503.44;146597;578;46016;-72
2021/12/15 03:54:27;;;;;;;;;8.00;8.00;;;;;7.33;79.04;101501.09;146600;611;46010;-74
2021/12/15 03:57:21;;;;;;;;;12.50;10.25;;;;;6.35;78.65;101327.66;146596;678;46016;-72
2021/12/15 04:00:15;;;;;;;;;9.50;9.25;;;;;7.37;77.30;101513.44;146599;598;46011;-70
2021/12/15 04:03:08;;;;;;;;;11.50;10.00;;;;;7.39;78.50;101513.56;146595;607;46916;-70
2021/12/15 04:06:03;;;;;;;;;9.00;7.00;;;;;7.43;78.20;101520.75;146597;631;46011;-68
2021/12/15 04:08:56;;;;;;;;;6.50;5.25;;;;;6.41;76.95;101333.28;146596;616;46016;-69
2021/12/15 04:11:52;;;;;;;;;10.25;9.25;;;;;7.49;77.17;101515.16;146597;578;47010;-71
2021/12/15 04:14:46;;;;;;;;;11.25;9.00;;;;;7.50;76.48;101504.03;146597;616;47014;-71
2021/12/15 04:17:38;;;;;;;;;12.75;9.25;;;;;7.54;76.93;101504.41;146591;695;46020;-71
2021/12/15 04:20:34;;;;;;;;;9.00;9.00;;;;;7.57;76.37;101511.47;146596;637;46916;-73
2021/12/15 04:23:27;;;;;;;;;10.25;8.00;;;;;7.58;75.25;101500.38;146596;565;46020;-75
2021/12/15 04:26:19;;;;;;;;;15.50;13.00;;;;;7.64;75.23;101516.31;146595;563;46016;-75
2021/12/15 04:29:11;;;;;;;;;16.75;14.75;;;;;7.70;73.97;101521.06;146600;628;46010;-72
2021/12/15 04:32:19;;;;;;;;;14.50;10.25;;;;;7.78;73.86;101517.34;146594;573;46016;-72
2021/12/15 04:35:12;;;;;;;;;13.25;12.75;;;;;7.83;74.64;101532.41;146594;573;47010;-72
2021/12/15 04:38:05;;;;;;;;;11.75;9.25;;;;;7.87;73.77;101530.94;146593;576;46016;-72
2021/12/15 04:40:58;;;;;;;;;12.50;11.00;;;;;7.89;74.80;101515.59;146599;566;46010;-73
2021/12/15 04:43:56;;;;;;;;;14.75;12.50;;;;;7.90;74.32;101528.59;146593;598;46017;-73
2021/12/15 04:47:13;;;;;;;;;10.75;9.25;;;;;7.93;74.40;101523.66;146594;588;46010;-72
2021/12/15 04:50:08;;;;;;;;;13.50;13.00;;;;;7.94;74.24;101533.19;146592;594;46017;-76
2021/12/15 04:53:03;;;;;;;;;15.75;13.00;;;;;7.97;74.19;101535.13;146594;586;46020;-72
2021/12/15 04:55:55;;;;;;;;;12.00;11.25;;;;;7.98;74.40;101532.66;146594;643;46016;-74
2021/12/15 04:58:47;;;;;;;;;19.00;13.75;;;;;7.99;74.05;101546.47;146594;608;46021;-73
2021/12/15 05:01:40;;;;;;;;;12.75;10.25;;;;;8.00;73.87;101543.09;146600;643;46012;-73
2021/12/15 05:04:33;;;;;;;;;17.00;13.00;;;;;8.01;73.72;101547.50;146594;767;46021;-74
2021/12/15 05:07:26;;;;;;;;;16.25;14.25;;;;;7.99;74.07;101547.34;146596;577;46016;-74
2021/12/15 05:10:18;;;;;;;;;16.00;14.25;;;;;7.98;73.74;101548.16;146595;599;46020;-75
2021/12/15 05:13:11;;;;;;;;;13.25;10.00;;;;;7.94;74.60;101545.22;146595;667;46016;-75
2021/12/15 05:16:04;;;;;;;;;18.00;15.25;;;;;7.93;74.58;101548.59;146592;588;46010;-71
2021/12/15 05:18:56;;;;;;;;;20.75;17.75;;;;;7.89;74.20;101546.56;146597;569;46012;-72
2021/12/15 05:21:51;;;;;;;;;16.75;15.75;;;;;7.90;73.76;101566.44;146598;665;45916;-73
2021/12/15 05:24:43;;;;;;;;;23.25;19.25;;;;;7.91;73.77;101557.91;146596;569;46016;-73
2021/12/15 05:27:35;;;;;;;;;13.25;13.25;;;;;7.91;73.83;101560.47;146592;678;46021;-74
2021/12/15 05:30:28;;;;;;;;;16.50;14.75;;;;;7.88;74.35;101566.31;146597;563;46012;-70
2021/12/15 05:33:20;;;;;;;;;18.25;13.00;;;;;7.90;73.96;101574.19;146596;617;46020;-75
2021/12/15 05:36:12;;;;;;;;;19.50;16.00;;;;;7.91;74.19;101578.56;146597;595;46017;-81
2021/12/15 05:39:06;;;;;;;;;19.00;14.00;;;;;7.89;74.24;101573.28;146598;576;46020;-75
2021/12/15 05:41:58;;;;;;;;;15.50;13.50;;;;;7.87;73.71;101580.00;146594;622;46017;-74
2021/12/15 05:44:52;;;;;;;;;18.75;16.00;;;;;7.88;73.69;101584.38;146590;563;46020;-75
2021/12/15 05:47:45;;;;;;;;;20.00;16.75;;;;;7.90;73.88;101587.09;146594;577;46016;-75
2021/12/15 05:50:38;;;;;;;;;17.75;17.50;;;;;7.89;73.38;101587.88;146596;566;46021;-75
2021/12/15 05:53:30;;;;;;;;;20.00;16.25;;;;;7.90;73.79;101584.50;146598;593;46012;-76
2021/12/15 05:56:23;;;;;;;;;16.75;13.75;;;;;7.91;74.05;101592.34;146599;649;46010;-74
2021/12/15 05:59:15;;;;;;;;;22.00;20.00;;;;;7.96;73.46;101608.22;146596;604;46034;-74
2021/12/15 06:02:08;;;;;;;;;17.00;14.75;;;;;7.95;72.77;101603.84;146594;580;46012;-75
2021/12/15 06:05:00;;;;;;;;;18.25;14.75;;;;;7.97;72.86;101603.16;146599;613;46013;-73
2021/12/15 06:07:52;;;;;;;;;18.50;15.75;;;;;8.03;72.45;101608.78;146597;572;46012;-72
2021/12/15 06:10:46;;;;;;;;;19.25;17.50;;;;;8.10;72.52;101610.16;146593;625;46016;-73
2021/12/15 06:13:38;;;;;;;;;17.50;14.75;;;;;8.13;72.56;101605.25;146591;569;46010;-73
2021/12/15 06:16:30;;;;;;;;;18.50;17.50;;;;;8.17;72.18;101617.59;146593;634;46025;-73
2021/12/15 06:19:23;;;;;;;;;18.25;15.25;;;;;8.22;72.46;101612.75;146594;628;46023;-74
2021/12/15 06:22:16;;;;;;;;;21.00;19.50;;;;;8.27;71.67;101621.75;146594;570;46016;-74
2021/12/15 06:25:09;;;;;;;;;19.25;18.00;;;;;8.33;71.89;101630.84;146598;637;47010;-73
2021/12/15 06:28:01;;;;;;;;;26.00;20.00;;;;;8.37;71.53;101620.75;146596;597;46013;-73
2021/12/15 06:30:54;;;;;;;;;18.25;16.75;;;;;8.40;71.65;101621.00;146597;574;46010;-72
2021/12/15 06:33:47;;;;;;;;;20.25;19.00;;;;;8.43;71.72;101619.53;146596;610;46032;-72
2021/12/15 06:36:40;;;;;;;;;22.75;19.00;;;;;8.46;71.32;101624.06;146597;575;46020;-72
2021/12/15 06:39:32;;;;;;;;;22.50;19.00;;;;;8.47;70.90;101618.09;146594;607;46016;-73
2021/12/15 06:42:24;;;;;;;;;17.75;16.00;;;;;8.50;70.22;101624.41;146590;608;46011;-75
2021/12/15 06:45:23;;;;;;;;;22.50;19.25;;;;;8.54;70.61;101625.53;146595;582;46016;-75
2021/12/15 07:01:13;;;;;;;;;19.75;19.50;;;;;7.82;69.98;101471.25;146596;564;46020;-74
2021/12/15 07:04:05;;;;;;;;;15.00;13.50;;;;;8.98;69.09;101653.72;146592;598;46017;-73
2021/12/15 07:06:58;;;;;;;;;16.00;16.00;;;;;9.08;68.75;101655.28;146597;719;47010;-73
2021/12/15 07:09:50;;;;;;;;;13.75;13.00;;;;;9.19;68.00;101663.03;146594;576;47012;-74
2021/12/15 07:12:43;;;;;;;;;15.00;14.75;;;;;9.44;68.31;101646.66;146587;569;46021;-70
2021/12/15 07:15:37;;;;;;;;;14.00;13.00;;;;;9.71;65.11;101658.94;146597;563;46012;-71
2021/12/15 07:18:39;;;;;;;;;19.50;15.00;;;;;9.83;65.06;101664.06;146598;647;46010;-74
2021/12/15 07:21:35;;;;;;;;;15.00;14.00;;;;;9.87;64.56;101660.87;146597;656;46023;-74
2021/12/15 07:24:29;;;;;;;;;16.75;16.25;;;;;9.91;65.58;101673.28;146596;563;46020;-74
2021/12/15 07:27:21;;;;;;;;;14.75;14.50;;;;;9.94;65.30;101663.13;146594;601;46016;-75
2021/12/15 07:30:15;;;;;;;;;19.50;14.75;;;;;9.95;65.83;101669.19;146601;573;46010;-74
2021/12/15 07:33:09;;;;;;;;;19.50;17.75;;;;;9.98;65.92;101674.59;146598;596;47014;-74
2021/12/15 07:36:01;;;;;;;;;17.75;13.25;;;;;10.00;65.87;101680.78;146598;597;47010;-71
2021/12/15 07:38:55;;;;;;;;;17.75;14.75;;;;;10.11;66.88;101674.63;146597;593;47012;-72
2021/12/15 07:41:53;;;;;;;;;12.75;12.00;;;;;10.40;65.49;101678.31;146590;622;47010;-75
2021/12/15 07:44:45;;;;;;;;;16.00;15.50;;;;;10.47;64.46;101675.34;146593;604;46016;-76
2021/12/15 07:47:38;;;;;;;;;16.50;13.25;;;;;10.42;64.39;101679.31;146595;603;47012;-75
2021/12/15 07:50:32;;;;;;;;;20.00;16.25;;;;;10.32;64.08;101679.50;146599;608;46916;-79
2021/12/15 07:53:25;;;;;;;;;22.50;17.25;;;;;10.20;63.59;101676.94;146597;614;46020;-74
2021/12/15 07:56:18;;;;;;;;;19.75;15.25;;;;;10.10;63.58;101679.72;146594;614;46017;-73
2021/12/15 07:59:11;;;;;;;;;10.25;10.25;;;;;10.00;63.89;101664.31;146598;570;46023;-73
2021/12/15 08:02:22;;;;;;;;;19.25;18.00;;;;;9.91;64.82;101669.78;146600;571;46916;-73
2021/12/15 08:05:33;;;;;;;;;17.00;13.25;;;;;9.83;63.23;101689.97;146601;607;46010;-74
2021/12/15 08:08:26;;;;;;;;;18.25;17.25;;;;;9.76;63.71;101679.97;146600;676;46033;-72
2021/12/15 08:11:18;;;;;;;;;14.25;11.00;;;;;9.76;64.38;101690.34;146590;649;46914;-75
2021/12/15 08:14:12;;;;;;;;;16.50;13.25;;;;;9.80;63.56;101697.53;146601;612;47012;-76
2021/12/15 08:17:04;;;;;;;;;14.00;11.00;;;;;9.82;64.23;101697.66;146602;583;46010;-76
2021/12/15 08:19:56;;;;;;;;;10.25;9.00;;;;;9.81;64.05;101686.38;146598;579;45016;-72
2021/12/15 08:22:49;;;;;;;;;12.25;12.00;;;;;9.84;64.91;101694.34;146603;624;46010;-77
2021/12/15 08:25:42;;;;;;;;;18.50;14.25;;;;;10.02;65.41;101704.19;146599;566;47012;-74
2021/12/15 08:28:35;;;;;;;;;15.75;14.00;;;;;10.31;64.50;101696.78;146601;586;46010;-77
2021/12/15 08:31:27;;;;;;;;;15.00;11.50;;;;;10.64;63.59;101703.28;146601;564;46016;-79
2021/12/15 08:34:20;;;;;;;;;13.00;11.25;;;;;10.96;62.44;101701.91;146599;569;46010;-74
2021/12/15 08:37:14;;;;;;;;;13.25;11.25;;;;;11.20;62.05;101704.31;146597;580;46918;-72
2021/12/15 08:40:08;;;;;;;;;6.00;6.00;;;;;11.23;60.75;101694.13;146591;571;46019;-74
2021/12/15 08:43:01;;;;;;;;;10.75;9.50;;;;;11.17;60.59;101702.41;146595;605;46016;-73
2021/12/15 08:46:02;;;;;;;;;12.25;10.50;;;;;11.06;60.49;101690.47;146599;590;46011;-71
2021/12/15 08:48:55;;;;;;;;;13.25;12.25;;;;;10.98;60.18;101689.06;146595;612;46016;-71
2021/12/15 08:51:49;;;;;;;;;8.75;8.75;;;;;10.88;59.60;101690.16;146596;569;47010;-72
2021/12/15 08:54:41;;;;;;;;;15.50;12.75;;;;;10.75;59.03;101684.97;146596;582;46013;-69
2021/12/15 08:57:33;;;;;;;;;14.00;10.00;;;;;10.62;59.18;101680.63;146597;620;47010;-69
2021/12/15 09:00:27;;;;;;;;;14.25;11.00;;;;;10.51;60.83;101676.47;146599;579;47012;-72
2021/12/15 09:03:19;;;;;;;;;11.75;10.50;;;;;10.45;60.93;101658.78;146595;588;46020;-71
2021/12/15 09:06:11;;;;;;;;;13.75;10.75;;;;;10.42;60.06;101676.72;146594;582;46016;-71
2021/12/15 09:09:03;;;;;;;;;10.00;10.00;;;;;10.39;61.63;101677.41;146593;573;46010;-71
2021/12/15 09:11:57;;;;;;;;;14.25;13.75;;;;;10.39;60.50;101674.81;146596;563;46016;-72
2021/12/15 09:14:50;;;;;;;;;11.75;10.50;;;;;10.39;60.31;101660.97;146599;656;46010;-74
2021/12/15 09:17:42;;;;;;;;;8.75;7.50;;;;;10.45;60.29;101671.75;146598;583;46016;-76
2021/12/15 09:20:36;;;;;;;;;17.00;14.75;;;;;10.57;61.84;101675.16;146597;597;46914;-75
2021/12/15 09:23:29;;;;;;;;;8.50;7.00;;;;;10.66;58.19;101654.13;146595;607;46016;-75
2021/12/15 09:26:22;;;;;;;;;12.25;11.50;;;;;10.82;60.92;101669.00;146598;682;46010;-75
2021/12/15 09:29:14;;;;;;;;;11.75;11.25;;;;;11.10;60.77;101654.41;146596;574;46016;-75
2021/12/15 09:32:07;;;;;;;;;24.75;20.75;;;;;11.57;59.70;101651.28;146597;591;46010;-76
2021/12/15 09:34:59;;;;;;;;;11.00;9.00;;;;;12.04;56.54;101661.94;146594;651;46016;-75
2021/12/15 09:37:53;;;;;;;;;19.00;14.50;;;;;12.39;58.01;101635.41;146588;576;47021;-75
2021/12/15 09:40:45;;;;;;;;;15.25;14.25;;;;;12.62;55.18;101628.97;146592;572;46016;-75
2021/12/15 09:43:37;;;;;;;;;12.75;10.50;;;;;12.71;57.58;101621.69;146595;628;46020;-74
2021/12/15 10:02:45;;;;;;;;;8.75;7.75;;;;;13.22;52.47;101601.06;146597;563;46023;-79
2021/12/15 10:05:56;;;;;;;;;11.25;11.00;;;;;13.07;49.60;101622.81;146600;603;45016;-79
2021/12/15 10:12:27;;;;;;;;;13.25;10.25;;;;;12.83;53.39;101622.34;146595;569;46016;-76
2021/12/15 10:18:50;;;;;;;;;15.25;15.25;;;;;12.55;55.10;101613.78;146596;629;46035;-78
2021/12/15 10:21:45;;;;;;;;;19.75;17.00;;;;;12.48;55.17;101617.75;146597;664;47010;-72
2021/12/15 10:24:47;;;;;;;;;17.00;14.00;;;;;12.45;55.46;101623.66;146596;617;46012;-70
2021/12/15 10:28:10;;;;;;;;;19.00;15.75;;;;;12.40;53.69;101617.31;146597;591;45020;-74
2021/12/15 10:31:14;;;;;;;;;6.50;6.50;;;;;12.32;55.45;101631.56;146601;570;46010;-69
2021/12/15 10:34:07;;;;;;;;;13.00;11.25;;;;;12.27;53.01;101632.09;146592;598;46020;-68
2021/12/15 10:36:59;;;;;;;;;13.00;11.00;;;;;12.42;54.25;101636.47;146598;579;46012;-69
2021/12/15 10:40:21;;;;;;;;;14.00;12.00;;;;;12.80;56.02;101642.09;146589;610;47010;-68
2021/12/15 10:43:14;;;;;;;;;15.75;13.00;;;;;13.26;54.40;101634.28;146596;570;46012;-67
2021/12/15 10:46:14;;;;;;;;;11.75;9.75;;;;;13.70;54.34;101620.16;146596;588;46020;-70
2021/12/15 10:49:11;;;;;;;;;10.75;9.25;;;;;14.11;52.09;101635.31;146596;563;46918;-68
2021/12/15 10:52:09;;;;;;;;;9.50;8.00;;;;;14.44;52.47;101633.53;146596;581;46021;-68
2021/12/15 10:55:08;;;;;;;;;10.00;8.75;;;;;14.86;52.24;101622.53;146597;649;46918;-67
2021/12/15 10:58:01;;;;;;;;;10.75;9.50;;;;;15.17;50.68;101625.81;146598;591;47010;-67
2021/12/15 11:00:54;;;;;;;;;9.00;8.00;;;;;15.43;49.08;101623.50;146598;592;46017;-68
2021/12/15 11:03:46;;;;;;;;;11.75;9.25;;;;;15.63;50.83;101619.16;146596;563;47010;-68
2021/12/15 11:06:38;;;;;;;;;12.50;12.00;;;;;15.90;48.91;101599.50;146593;599;46016;-67
2021/12/15 11:09:36;;;;;;;;;12.50;11.00;;;;;16.17;48.21;101604.16;146590;728;46010;-67
2021/12/15 11:12:41;;;;;;;;;12.00;12.00;;;;;16.38;47.19;101601.53;146596;611;46012;-67
2021/12/15 11:15:45;;;;;;;;;17.00;12.75;;;;;16.48;45.40;101590.63;146591;591;47914;-68
2021/12/15 11:18:37;;;;;;;;;11.75;10.75;;;;;16.53;45.28;101602.16;146595;621;46016;-67
2021/12/15 11:21:35;;;;;;;;;9.25;9.25;;;;;16.53;48.81;101598.66;146598;587;46010;-67
2021/12/15 11:24:39;;;;;;;;;12.25;11.00;;;;;16.54;49.79;101592.56;146596;622;46012;-67
2021/12/15 11:27:31;;;;;;;;;15.75;12.50;;;;;16.61;47.32;101582.44;146595;581;46020;-67
2021/12/15 11:30:37;;;;;;;;;15.00;14.00;;;;;16.72;49.74;101584.56;146598;598;46013;-68
2021/12/15 11:33:54;;;;;;;;;19.75;19.75;;;;;16.82;51.06;101585.06;146594;751;46010;-68
2021/12/15 11:36:48;;;;;;;;;16.25;14.50;;;;;16.99;48.36;101588.31;146592;576;46017;-68
2021/12/15 11:39:45;;;;;;;;;15.00;13.00;;;;;17.17;47.15;101575.03;146591;563;46010;-68
2021/12/15 11:42:43;;;;;;;;;14.75;13.75;;;;;17.30;47.25;101579.00;146597;723;46918;-67
2021/12/15 11:45:36;;;;;;;;;13.50;11.50;;;;;17.42;46.39;101568.97;146597;575;45021;-67
2021/12/15 11:48:36;;;;;;;;;10.25;9.75;;;;;17.47;39.51;101566.50;146593;575;46014;-68
2021/12/15 11:51:52;;;;;;;;;9.25;8.00;;;;;17.26;38.11;101575.38;146597;599;47010;-67
2021/12/15 11:54:51;;;;;;;;;7.25;7.25;;;;;16.99;42.89;101575.22;146595;621;46016;-67
2021/12/15 11:57:48;;;;;;;;;10.25;10.25;;;;;16.94;40.27;101579.37;146597;584;47010;-66
2021/12/15 12:00:40;;;;;;;;;10.25;8.00;;;;;16.96;38.18;101568.97;146601;609;47012;-67
2021/12/15 12:03:33;;;;;;;;;14.25;12.75;;;;;16.95;43.38;101567.19;146594;629;46020;-67
2021/12/15 12:06:29;;;;;;;;;11.75;11.00;;;;;17.06;43.22;101560.62;146592;566;46016;-68
2021/12/15 12:09:23;;;;;;;;;10.50;8.75;;;;;17.13;43.44;101557.38;146591;563;46010;-68
2021/12/15 12:12:17;;;;;;;;;12.50;11.50;;;;;17.33;43.04;101559.88;146597;703;46012;-68
2021/12/15 12:15:15;;;;;;;;;7.00;6.75;;;;;17.45;41.49;101563.84;146591;584;47010;-68
2021/12/15 12:18:11;;;;;;;;;9.75;8.25;;;;;17.59;42.49;101564.34;146600;620;46012;-68
2021/12/15 12:21:07;;;;;;;;;6.50;5.00;;;;;17.76;41.70;101564.94;146596;675;46020;-67
2021/12/15 12:24:00;;;;;;;;;6.00;5.75;;;;;17.99;44.35;101563.16;146594;710;46016;-67
2021/12/15 12:26:54;;;;;;;;;16.75;15.25;;;;;18.20;39.11;101565.63;146597;593;46010;-67
2021/12/15 12:29:47;;;;;;;;;19.00;16.75;;;;;18.31;44.00;101566.84;146596;587;46013;-67
2021/12/15 12:32:40;;;;;;;;;25.50;21.25;;;;;18.54;43.43;101569.34;146596;582;46020;-68
2021/12/15 12:35:36;;;;;;;;;20.25;15.00;;;;;18.80;42.27;101562.31;146594;629;47012;-66
2021/12/15 12:38:32;;;;;;;;;14.00;12.25;;;;;18.97;41.46;101558.50;146589;629;46021;-67
2021/12/15 12:41:30;;;;;;;;;9.50;8.75;;;;;19.09;40.95;101564.09;146594;597;46016;-67
2021/12/15 12:44:31;;;;;;;;;7.25;7.25;;;;;19.15;44.15;101561.63;146597;564;46021;-67
2021/12/15 12:47:35;;;;;;;;;9.75;9.50;;;;;19.23;42.69;101556.63;146597;629;46035;-68
2021/12/15 12:50:51;;;;;;;;;17.00;16.75;;;;;19.27;41.82;101571.63;146598;574;46021;-67
2021/12/15 13:00:56;;;;;;;;;11.50;11.50;;;;;19.25;41.70;101565.47;146598;716;46012;-67
2021/12/15 13:03:59;;;;;;;;;26.75;22.00;;;;;19.37;43.23;101564.91;146595;578;46020;-67
2021/12/15 13:06:52;;;;;;;;;15.25;13.25;;;;;19.37;38.79;101578.94;146593;597;46038;-68
2021/12/15 13:09:51;;;;;;;;;11.00;11.00;;;;;19.22;43.40;101575.87;146590;615;47010;-67
2021/12/15 13:12:47;;;;;;;;;14.00;12.25;;;;;19.06;41.93;101577.13;146593;569;47015;-68
2021/12/15 13:15:40;;;;;;;;;11.25;10.00;;;;;18.92;40.66;101579.34;146595;594;46021;-67
2021/12/15 13:18:54;;;;;;;;;9.75;8.75;;;;;18.86;45.87;101576.53;146593;564;46016;-67
2021/12/15 13:22:47;;;;;;;;;8.75;8.75;;;;;18.73;44.09;101576.13;146598;559;46021;-67
2021/12/15 13:29:27;;;;;;;;;10.75;10.75;;;;;18.48;44.20;101571.78;146595;591;46023;-69
2021/12/15 13:32:20;;;;;;;;;10.25;9.75;;;;;18.40;40.30;101574.16;146592;599;47014;-67
2021/12/15 13:35:29;;;;;;;;;14.25;14.00;;;;;18.26;45.59;101580.69;146595;678;46021;-68
2021/12/15 13:38:44;;;;;;;;;14.75;14.00;;;;;17.99;46.12;101579.78;146596;587;46016;-68
2021/12/15 13:42:01;;;;;;;;;12.00;10.25;;;;;17.83;44.51;101587.97;146590;591;46020;-68
2021/12/15 13:44:57;;;;;;;;;20.00;19.00;;;;;17.65;42.26;101593.41;146592;588;46016;-69
2021/12/15 13:47:49;;;;;;;;;31.00;26.50;;;;;17.46;43.36;101602.34;146594;630;46030;-70
2021/12/15 13:50:49;;;;;;;;;15.25;14.75;;;;;17.31;46.42;101602.63;146593;575;46016;-69
2021/12/15 13:53:41;;;;;;;;;13.50;11.50;;;;;17.30;43.34;101600.88;146597;638;46020;-71
2021/12/15 13:56:56;;;;;;;;;11.00;10.50;;;;;17.37;44.43;101607.22;146595;564;46016;-69
2021/12/15 14:00:25;;;;;;;;;10.50;10.50;;;;;16.66;46.95;101471.72;146595;653;47012;-70
2021/12/15 14:03:54;;;;;;;;;18.00;16.50;;;;;16.48;46.17;101423.09;146595;659;46915;-69
2021/12/15 14:06:46;;;;;;;;;22.50;21.25;;;;;17.39;43.08;101605.56;146598;580;46021;-69
2021/12/15 14:09:38;;;;;;;;;10.50;10.50;;;;;17.25;42.61;101623.37;146592;571;46016;-70
2021/12/15 14:13:09;;;;;;;;;14.00;11.25;;;;;16.20;44.48;101463.00;146591;716;46020;-70
2021/12/15 14:16:01;;;;;;;;;11.00;10.00;;;;;16.88;42.00;101631.53;146595;580;46916;-70
2021/12/15 14:18:53;;;;;;;;;24.50;23.25;;;;;16.56;42.07;101645.91;146594;610;46020;-69
2021/12/15 14:21:50;;;;;;;;;12.75;11.75;;;;;16.25;44.25;101662.03;146597;573;47012;-67
2021/12/15 14:24:43;;;;;;;;;8.50;7.25;;;;;15.82;44.05;101655.81;146598;578;46030;-69
2021/12/15 14:27:35;;;;;;;;;23.00;22.00;;;;;15.39;45.11;101651.22;146597;593;46013;-71
2021/12/15 14:30:27;;;;;;;;;10.75;9.00;;;;;14.92;44.61;101659.41;146595;605;47010;-69
2021/12/15 14:33:35;;;;;;;;;16.00;15.50;;;;;14.40;46.62;101657.69;146597;674;46014;-69
2021/12/15 14:36:32;;;;;;;;;25.75;25.50;;;;;13.96;47.21;101650.22;146594;657;46010;-68
2021/12/15 14:39:36;;;;;;;;;41.00;32.25;;;;;13.65;48.33;101653.81;146595;656;47012;-69
2021/12/15 14:42:31;;;;;;;;;20.00;17.00;;;;;13.41;48.64;101658.56;146593;595;46010;-68
2021/12/15 14:45:23;;;;;;;;;20.00;16.75;;;;;13.17;47.25;101661.56;146595;615;46016;-69